createdAt,value
2018-12-22T00:01:22.055Z,52.13
2018-12-22T00:03:50.225Z,50.57
2018-12-22T00:06:18.347Z,49.53
2018-12-22T00:08:46.533Z,45.67
2018-12-22T00:11:14.727Z,46.90
2018-12-22T00:13:42.845Z,37.53
2018-12-22T00:16:11.008Z,48.58
2018-12-22T00:18:39.168Z,47.23
2018-12-22T00:21:07.313Z,48.17
2018-12-22T00:23:35.443Z,44.63
2018-12-22T00:26:03.684Z,45.40
2018-12-22T00:28:31.810Z,40.87
2018-12-22T00:30:59.988Z,43.63
2018-12-22T00:33:28.130Z,53.97
2018-12-22T00:35:56.275Z,40.93
2018-12-22T00:38:24.405Z,49.75
2018-12-22T00:40:52.529Z,49.88
2018-12-22T00:43:20.663Z,39.60
2018-12-22T00:45:48.789Z,50.33
2018-12-22T00:48:17.697Z,45.15
2018-12-22T00:50:45.849Z,42.20
2018-12-22T00:53:13.995Z,47.33
2018-12-22T00:55:42.212Z,44.63
2018-12-22T00:58:10.347Z,41.68
2018-12-22T01:00:38.480Z,50.87
2018-12-22T01:03:06.612Z,43.30
2018-12-22T01:05:34.758Z,48.73
2018-12-22T01:08:02.894Z,47.03
2018-12-22T01:10:31.528Z,41.87
2018-12-22T01:12:59.673Z,45.23
2018-12-22T01:15:27.789Z,40.53
2018-12-22T01:17:55.939Z,41.73
2018-12-22T01:20:24.154Z,53.43
2018-12-22T01:22:52.279Z,46.15
2018-12-22T01:25:20.405Z,52.97
2018-12-22T01:27:48.559Z,44.33
2018-12-22T01:30:16.670Z,47.63
2018-12-22T01:32:44.839Z,54.00
2018-12-22T01:35:12.968Z,50.23
2018-12-22T01:37:41.097Z,51.43
2018-12-22T01:40:09.347Z,49.53
2018-12-22T01:42:37.462Z,40.37
2018-12-22T01:45:06.472Z,49.48
2018-12-22T01:47:34.610Z,46.73
2018-12-22T01:50:02.748Z,40.70
2018-12-22T01:52:30.874Z,43.87
2018-12-22T01:54:58.998Z,56.73
2018-12-22T01:57:27.119Z,52.53
2018-12-22T01:59:55.242Z,49.17
2018-12-22T02:02:23.386Z,40.57
2018-12-22T02:04:51.490Z,47.50
2018-12-22T02:07:19.623Z,51.30
2018-12-22T02:09:47.749Z,47.80
2018-12-22T02:12:15.893Z,56.00
2018-12-22T02:14:44.146Z,39.95
2018-12-22T02:17:12.273Z,45.60
2018-12-22T02:19:40.496Z,43.77
2018-12-22T02:22:08.613Z,41.50
2018-12-22T02:24:36.744Z,31.93
2018-12-22T02:27:04.859Z,35.97
2018-12-22T02:29:32.992Z,41.70
2018-12-22T02:32:01.137Z,44.48
2018-12-22T02:34:29.275Z,49.17
2018-12-22T02:36:57.410Z,40.50
2018-12-22T02:39:25.574Z,42.53
2018-12-22T02:41:53.704Z,46.53
2018-12-22T02:44:21.834Z,46.73
2018-12-22T02:46:49.987Z,46.83
2018-12-22T02:49:18.119Z,44.45
2018-12-22T02:51:46.255Z,49.35
2018-12-22T02:54:14.395Z,38.83
2018-12-22T02:56:42.518Z,45.90
2018-12-22T02:59:10.646Z,50.93
2018-12-22T03:01:38.932Z,44.87
2018-12-22T03:04:07.108Z,41.77
2018-12-22T03:06:35.249Z,39.03
2018-12-22T03:09:05.385Z,42.60
2018-12-22T03:11:33.527Z,38.70
2018-12-22T03:14:01.763Z,34.80
2018-12-22T03:16:29.888Z,33.83
2018-12-22T03:18:58.038Z,45.53
2018-12-22T03:21:26.153Z,42.47
2018-12-22T03:23:54.255Z,38.57
2018-12-22T03:26:22.466Z,42.93
2018-12-22T03:28:50.594Z,38.97
2018-12-22T03:31:18.750Z,31.60
2018-12-22T03:33:46.991Z,27.97
2018-12-22T03:36:15.221Z,33.25
2018-12-22T03:38:43.367Z,32.03
2018-12-22T03:41:11.506Z,35.90
2018-12-22T03:43:39.614Z,39.03
2018-12-22T03:46:07.749Z,40.30
2018-12-22T03:48:35.862Z,36.00
2018-12-22T03:51:05.506Z,37.97
2018-12-22T03:53:33.640Z,35.33
2018-12-22T03:56:01.788Z,40.57
2018-12-22T03:58:29.928Z,49.90
2018-12-22T04:00:58.090Z,48.73
2018-12-22T04:03:26.223Z,39.47
2018-12-22T04:05:54.431Z,41.90
2018-12-22T04:08:22.562Z,35.83
2018-12-22T04:10:50.673Z,38.07
2018-12-22T04:13:18.802Z,40.30
2018-12-22T04:15:47.063Z,41.00
2018-12-22T04:18:15.183Z,34.97
2018-12-22T04:20:43.327Z,37.48
2018-12-22T04:23:11.445Z,29.72
2018-12-22T04:25:39.559Z,32.97
2018-12-22T04:28:07.692Z,28.38
2018-12-22T04:30:35.854Z,26.68
2018-12-22T04:33:04.056Z,28.13
2018-12-22T04:35:32.268Z,27.13
2018-12-22T04:38:00.415Z,22.33
2018-12-22T04:40:28.555Z,23.03
2018-12-22T04:42:56.707Z,24.47
2018-12-22T04:45:24.813Z,20.43
2018-12-22T04:47:52.927Z,19.98
2018-12-22T04:50:21.092Z,20.50
2018-12-22T04:52:51.843Z,22.23
2018-12-22T04:55:21.321Z,18.75
2018-12-22T04:57:49.443Z,22.37
2018-12-22T05:00:17.587Z,17.50
2018-12-22T05:02:45.701Z,19.47
2018-12-22T05:05:13.835Z,25.43
2018-12-22T05:07:41.950Z,23.33
2018-12-22T05:10:10.083Z,14.28
2018-12-22T05:12:38.209Z,18.63
2018-12-22T05:15:08.309Z,21.83
2018-12-22T05:17:36.433Z,18.20
2018-12-22T05:20:06.762Z,17.07
2018-12-22T05:22:35.013Z,14.00
2018-12-22T05:25:03.157Z,17.80
2018-12-22T05:27:31.336Z,15.37
2018-12-22T05:29:59.455Z,16.40
2018-12-22T05:32:27.605Z,19.23
2018-12-22T05:34:55.726Z,18.70
2018-12-22T05:37:23.863Z,14.90
2018-12-22T05:39:51.972Z,16.37
2018-12-22T05:42:20.097Z,18.30
2018-12-22T05:44:48.276Z,12.47
2018-12-22T05:47:16.393Z,14.17
2018-12-22T05:49:44.540Z,16.53
2018-12-22T05:52:12.660Z,9.25
2018-12-22T05:54:40.805Z,17.87
2018-12-22T05:57:08.953Z,9.57
2018-12-22T05:59:37.106Z,13.00
2018-12-22T06:02:05.231Z,13.13
2018-12-22T06:04:33.468Z,14.93
2018-12-22T06:07:01.612Z,9.43
2018-12-22T06:09:29.747Z,12.63
2018-12-22T06:11:57.872Z,14.03
2018-12-22T06:14:25.996Z,12.63
2018-12-22T06:16:54.148Z,12.40
2018-12-22T06:19:22.269Z,14.83
2018-12-22T06:21:50.492Z,14.87
2018-12-22T06:24:18.637Z,17.83
2018-12-22T06:26:46.786Z,12.10
2018-12-22T06:29:14.946Z,12.63
2018-12-22T06:31:43.088Z,15.73
2018-12-22T06:34:11.208Z,13.60
2018-12-22T06:36:39.446Z,9.90
2018-12-22T06:39:07.603Z,11.53
2018-12-22T06:41:35.698Z,12.83
2018-12-22T06:44:04.646Z,12.50
2018-12-22T06:46:32.776Z,20.62
2018-12-22T06:49:00.899Z,12.67
2018-12-22T06:51:29.021Z,15.00
2018-12-22T06:53:57.221Z,17.25
2018-12-22T06:56:25.364Z,14.50
2018-12-22T06:58:53.663Z,13.17
2018-12-22T07:01:21.928Z,13.77
2018-12-22T07:03:50.115Z,16.20
2018-12-22T07:06:18.312Z,11.10
2018-12-22T07:08:46.458Z,17.17
2018-12-22T07:11:15.101Z,12.07
2018-12-22T07:13:44.222Z,11.90
2018-12-22T07:16:12.420Z,11.93
2018-12-22T07:18:40.598Z,9.37
2018-12-22T07:21:08.733Z,16.40
2018-12-22T07:23:36.852Z,11.77
2018-12-22T07:26:04.998Z,13.07
2018-12-22T07:28:33.156Z,11.60
2018-12-22T07:31:01.290Z,13.63
2018-12-22T07:33:29.472Z,12.30
2018-12-22T07:35:57.591Z,14.70
2018-12-22T07:38:25.752Z,17.90
2018-12-22T07:40:53.963Z,14.73
2018-12-22T07:43:22.091Z,12.70
2018-12-22T07:45:50.215Z,14.83
2018-12-22T07:48:18.393Z,10.48
2018-12-22T07:50:46.523Z,16.67
2018-12-22T07:53:14.713Z,11.20
2018-12-22T07:55:43.768Z,9.40
2018-12-22T07:58:11.940Z,8.03
2018-12-22T08:00:40.032Z,7.90
2018-12-22T08:03:08.178Z,7.73
2018-12-22T08:05:38.961Z,9.23
2018-12-22T08:08:06.488Z,7.15
2018-12-22T08:10:34.657Z,5.50
2018-12-22T08:13:02.807Z,9.67
2018-12-22T08:15:30.928Z,6.90
2018-12-22T08:17:59.088Z,10.60
2018-12-22T08:20:27.240Z,9.27
2018-12-22T08:22:55.393Z,10.90
2018-12-22T08:25:23.605Z,8.73
2018-12-22T08:27:51.721Z,8.15
2018-12-22T08:30:20.254Z,6.97
2018-12-22T08:32:48.397Z,7.43
2018-12-22T08:35:16.542Z,6.33
2018-12-22T08:37:44.812Z,6.70
2018-12-22T08:40:12.963Z,5.60
2018-12-22T08:42:41.097Z,5.47
2018-12-22T08:45:09.321Z,7.28
2018-12-22T08:47:37.487Z,8.93
2018-12-22T08:50:09.463Z,4.17
2018-12-22T08:52:37.900Z,8.83
2018-12-22T08:55:07.208Z,6.15
2018-12-22T08:57:35.335Z,8.23
2018-12-22T09:00:05.465Z,7.95
2018-12-22T09:02:33.623Z,4.75
2018-12-22T09:05:01.774Z,8.43
2018-12-22T09:07:30.145Z,7.20
2018-12-22T09:09:58.311Z,5.70
2018-12-22T09:12:26.421Z,4.73
2018-12-22T09:14:54.619Z,5.87
2018-12-22T09:17:22.757Z,10.93
2018-12-22T09:19:50.907Z,6.60
2018-12-22T09:22:19.048Z,5.63
2018-12-22T09:24:47.211Z,9.70
2018-12-22T09:27:15.346Z,6.17
2018-12-22T09:29:43.501Z,6.08
2018-12-22T09:32:11.781Z,10.73
2018-12-22T09:34:39.913Z,10.33
2018-12-22T09:37:08.144Z,12.67
2018-12-22T09:39:36.429Z,8.88
2018-12-22T09:42:04.548Z,10.32
2018-12-22T09:44:32.706Z,14.57
2018-12-22T09:47:00.897Z,11.68
2018-12-22T09:49:29.056Z,9.63
2018-12-22T09:51:57.193Z,11.23
2018-12-22T09:54:25.350Z,14.43
2018-12-22T09:56:53.481Z,14.87
2018-12-22T09:59:21.648Z,11.47
2018-12-22T10:01:50.637Z,11.13
2018-12-22T10:04:18.783Z,11.15
2018-12-22T10:06:47.034Z,14.05
2018-12-22T10:09:15.213Z,10.13
2018-12-22T10:11:43.353Z,9.85
2018-12-22T10:14:11.484Z,10.83
2018-12-22T10:16:39.692Z,13.47
2018-12-22T10:19:07.808Z,12.83
2018-12-22T10:21:35.988Z,11.93
2018-12-22T10:24:04.198Z,10.33
2018-12-22T10:26:32.319Z,12.07
2018-12-22T10:29:00.753Z,10.77
2018-12-22T10:31:28.932Z,16.43
2018-12-22T10:33:57.047Z,17.17
2018-12-22T10:36:25.211Z,14.30
2018-12-22T10:38:53.421Z,12.00
2018-12-22T10:41:21.628Z,10.30
2018-12-22T10:43:49.799Z,11.10
2018-12-22T10:46:17.933Z,13.20
2018-12-22T10:48:46.110Z,12.03
2018-12-22T10:51:14.922Z,11.80
2018-12-22T10:53:43.073Z,12.63
2018-12-22T10:56:11.384Z,11.10
2018-12-22T10:58:39.564Z,9.80
2018-12-22T11:01:07.728Z,10.03
2018-12-22T11:03:35.895Z,10.30
2018-12-22T11:06:04.089Z,11.43
2018-12-22T11:08:32.534Z,11.60
2018-12-22T11:11:00.680Z,10.38
2018-12-22T11:13:29.939Z,11.65
2018-12-22T11:15:58.087Z,16.23
2018-12-22T11:18:26.271Z,11.53
2018-12-22T11:20:54.455Z,12.35
2018-12-22T11:23:22.639Z,9.17
2018-12-22T11:25:50.976Z,11.17
2018-12-22T11:28:19.139Z,12.10
2018-12-22T11:30:47.286Z,11.83
2018-12-22T11:33:15.479Z,10.37
2018-12-22T11:35:44.563Z,13.10
2018-12-22T11:38:12.729Z,13.53
2018-12-22T11:40:40.980Z,12.93
2018-12-22T11:43:09.138Z,13.60
2018-12-22T11:45:37.338Z,11.12
2018-12-22T11:48:11.504Z,14.28
2018-12-22T11:50:39.680Z,11.35
2018-12-22T11:53:07.826Z,11.00
2018-12-22T11:55:35.978Z,12.00
2018-12-22T11:58:04.248Z,11.57
2018-12-22T12:00:32.387Z,10.83
2018-12-22T12:03:00.798Z,13.87
2018-12-22T12:05:28.976Z,13.50
2018-12-22T12:07:58.090Z,10.40
2018-12-22T12:10:26.252Z,9.03
2018-12-22T12:12:54.422Z,9.75
2018-12-22T12:15:22.647Z,4.30
2018-12-22T12:18:01.218Z,4.20
2018-12-22T12:20:29.365Z,8.05
2018-12-22T12:22:57.494Z,6.97
2018-12-22T12:25:25.643Z,3.50
2018-12-22T12:27:53.793Z,5.67
2018-12-22T12:30:21.992Z,4.60
2018-12-22T12:32:50.649Z,3.77
2018-12-22T12:35:18.823Z,3.80
2018-12-22T12:37:46.942Z,3.67
2018-12-22T12:40:15.159Z,4.85
2018-12-22T12:42:43.304Z,3.00
2018-12-22T12:45:14.187Z,3.85
2018-12-22T12:47:44.913Z,4.40
2018-12-22T12:50:20.396Z,3.50
2018-12-22T12:52:48.853Z,4.03
2018-12-22T12:55:17.110Z,5.83
2018-12-22T12:57:45.237Z,6.37
2018-12-22T13:00:21.696Z,6.70
2018-12-22T13:02:49.843Z,5.73
2018-12-22T13:05:18.760Z,4.03
2018-12-22T13:07:46.919Z,7.10
2018-12-22T13:10:15.097Z,7.53
2018-12-22T13:12:59.004Z,7.77
2018-12-22T13:15:27.152Z,5.37
2018-12-22T13:17:55.325Z,8.17
2018-12-22T13:20:25.536Z,6.33
2018-12-22T13:22:53.665Z,8.57
2018-12-22T13:25:21.986Z,8.05
2018-12-22T13:27:51.474Z,9.80
2018-12-22T13:30:19.702Z,10.90
2018-12-22T13:32:48.100Z,13.33
2018-12-22T13:35:16.241Z,13.88
2018-12-22T13:37:44.544Z,15.00
2018-12-22T13:40:14.858Z,8.88
2018-12-22T13:42:43.130Z,11.07
2018-12-22T13:45:11.734Z,11.00
2018-12-22T13:47:40.092Z,11.93
2018-12-22T13:50:13.476Z,13.88
2018-12-22T13:52:41.669Z,11.83
2018-12-22T13:55:10.770Z,12.75
2018-12-22T13:57:43.443Z,7.42
2018-12-22T14:00:21.529Z,11.03
2018-12-22T14:02:49.789Z,17.47
2018-12-22T14:05:26.730Z,15.63
2018-12-22T14:07:55.014Z,13.73
2018-12-22T14:10:23.974Z,11.57
2018-12-22T14:12:52.138Z,12.97
2018-12-22T14:15:23.422Z,7.92
2018-12-22T14:21:02.538Z,11.30
2018-12-22T14:23:52.453Z,11.48
2018-12-22T14:26:20.633Z,10.47
2018-12-22T14:28:49.922Z,10.30
2018-12-22T14:31:18.049Z,13.10
2018-12-22T14:33:47.069Z,12.20
2018-12-22T14:36:15.651Z,10.73
2018-12-22T14:38:43.944Z,11.03
2018-12-22T14:41:12.295Z,12.98
2018-12-22T14:43:40.477Z,6.53
2018-12-22T14:46:08.645Z,8.20
2018-12-22T14:48:36.794Z,7.30
2018-12-22T14:51:05.223Z,7.55
2018-12-22T14:53:33.455Z,6.77
2018-12-22T14:56:01.635Z,14.80
2018-12-22T14:58:29.914Z,8.37
2018-12-22T15:00:58.119Z,7.37
2018-12-22T15:03:26.285Z,7.13
2018-12-22T15:05:54.464Z,7.37
2018-12-22T15:08:22.666Z,9.37
2018-12-22T15:10:50.908Z,11.47
2018-12-22T15:13:19.067Z,10.43
2018-12-22T15:15:47.343Z,10.30
2018-12-22T15:18:15.508Z,20.50
2018-12-22T15:20:43.704Z,17.83
2018-12-22T15:23:11.865Z,12.63
2018-12-22T15:25:40.080Z,14.97
2018-12-22T15:28:08.223Z,12.53
2018-12-22T15:30:36.404Z,13.77
2018-12-22T15:33:05.743Z,10.03
2018-12-22T15:35:34.052Z,10.50
2018-12-22T15:38:02.212Z,12.17
2018-12-22T15:40:30.403Z,11.97
2018-12-22T15:42:58.586Z,11.07
2018-12-22T15:45:26.747Z,12.80
2018-12-22T15:47:55.011Z,12.53
2018-12-22T15:50:30.443Z,12.83
2018-12-22T15:52:59.610Z,15.57
2018-12-22T15:55:27.942Z,17.27
2018-12-22T15:57:56.230Z,12.33
2018-12-22T16:00:24.393Z,9.87
2018-12-22T16:02:53.530Z,10.80
2018-12-22T16:05:21.807Z,20.00
2018-12-22T16:07:50.000Z,11.27
2018-12-22T16:10:18.257Z,10.60
2018-12-22T16:12:46.520Z,11.60
2018-12-22T16:15:22.708Z,14.73
2018-12-22T16:17:51.914Z,11.20
2018-12-22T16:20:20.115Z,12.27
2018-12-22T16:22:56.579Z,10.40
2018-12-22T16:25:24.961Z,13.07
2018-12-22T16:27:58.933Z,14.75
2018-12-22T16:30:47.511Z,16.03
2018-12-22T16:33:16.354Z,13.65
2018-12-22T16:35:44.550Z,10.77
2018-12-22T16:38:12.750Z,13.37
2018-12-22T16:40:40.940Z,9.73
2018-12-22T16:43:10.783Z,17.00
2018-12-22T16:45:41.665Z,18.82
2018-12-22T16:48:10.049Z,17.93
2018-12-22T16:50:38.632Z,12.75
2018-12-22T16:53:06.798Z,15.10
2018-12-22T16:55:34.919Z,16.10
2018-12-22T16:58:12.438Z,14.93
2018-12-22T17:00:53.323Z,15.85
2018-12-22T17:03:22.195Z,17.00
2018-12-22T17:05:50.369Z,16.57
2018-12-22T17:08:18.569Z,12.03
2018-12-22T17:10:47.938Z,9.50
2018-12-22T17:13:16.488Z,12.00
2018-12-22T17:15:45.790Z,12.47
2018-12-22T17:18:13.945Z,16.67
2018-12-22T17:20:42.259Z,17.33
2018-12-22T17:23:45.081Z,14.70
2018-12-22T17:26:13.249Z,18.53
2018-12-22T17:28:41.443Z,19.85
2018-12-22T17:31:09.629Z,18.20
2018-12-22T17:33:37.771Z,19.70
2018-12-22T17:36:06.280Z,10.47
2018-12-22T17:38:34.423Z,16.53
2018-12-22T17:41:02.731Z,16.93
2018-12-22T17:43:31.071Z,17.93
2018-12-22T17:45:59.355Z,15.50
2018-12-22T17:48:27.620Z,17.60
2018-12-22T17:50:55.910Z,11.83
2018-12-22T17:53:24.103Z,19.23
2018-12-22T17:55:52.332Z,12.10
2018-12-22T17:58:20.605Z,12.13
2018-12-22T18:00:49.175Z,12.50
2018-12-22T18:03:17.480Z,16.33
2018-12-22T18:05:45.681Z,19.00
2018-12-22T18:08:13.868Z,13.97
2018-12-22T18:10:42.030Z,14.38
2018-12-22T18:13:10.252Z,19.50
2018-12-22T18:15:38.434Z,15.43
2018-12-22T18:18:06.744Z,17.57
2018-12-22T18:20:34.908Z,17.23
2018-12-22T18:23:03.093Z,17.00
2018-12-22T18:25:31.294Z,17.23
2018-12-22T18:27:59.476Z,18.13
2018-12-22T18:30:27.631Z,18.23
2018-12-22T18:32:55.891Z,23.23
2018-12-22T18:35:24.116Z,22.60
2018-12-22T18:37:52.357Z,17.77
2018-12-22T18:40:23.112Z,17.32
2018-12-22T18:42:51.480Z,15.30
2018-12-22T18:45:19.951Z,15.50
2018-12-22T18:47:48.147Z,12.20
2018-12-22T18:50:21.039Z,12.43
2018-12-22T18:52:50.104Z,17.77
2018-12-22T18:55:18.310Z,14.63
2018-12-22T18:57:50.053Z,20.20
2018-12-22T19:00:22.330Z,24.37
2018-12-22T19:02:51.293Z,23.33
2018-12-22T19:05:20.461Z,23.03
2018-12-22T19:07:49.050Z,26.00
2018-12-22T19:10:23.193Z,17.40
2018-12-22T19:12:51.400Z,18.07
2018-12-22T19:15:19.566Z,26.57
2018-12-22T19:17:47.815Z,15.13
2018-12-22T19:20:21.662Z,24.00
2018-12-22T19:22:49.800Z,22.47
2018-12-22T19:25:17.964Z,24.37
2018-12-22T19:27:46.113Z,22.40
2018-12-22T19:30:14.258Z,23.63
2018-12-22T19:32:42.409Z,17.20
2018-12-22T19:35:10.528Z,22.03
2018-12-22T19:37:38.716Z,28.77
2018-12-22T19:40:06.936Z,27.75
2018-12-22T19:42:35.310Z,30.95
2018-12-22T19:45:05.258Z,21.40
2018-12-22T19:47:33.453Z,20.33
2018-12-22T19:50:01.621Z,33.30
2018-12-22T19:52:29.776Z,29.30
2018-12-22T19:54:58.870Z,25.48
2018-12-22T19:57:27.007Z,31.07
2018-12-22T19:59:55.167Z,31.27
2018-12-22T20:02:23.316Z,30.53
2018-12-22T20:04:51.513Z,28.38
2018-12-22T20:07:19.750Z,28.12
2018-12-22T20:09:47.862Z,28.80
2018-12-22T20:12:16.040Z,35.60
2018-12-22T20:14:44.171Z,26.93
2018-12-22T20:17:12.932Z,34.60
2018-12-22T20:19:41.746Z,28.70
2018-12-22T20:22:10.019Z,24.40
2018-12-22T20:24:38.178Z,26.77
2018-12-22T20:27:06.368Z,38.17
2018-12-22T20:29:34.549Z,31.48
2018-12-22T20:32:02.742Z,25.48
2018-12-22T20:34:30.944Z,33.73
2018-12-22T20:36:59.171Z,29.97
2018-12-22T20:39:27.409Z,27.93
2018-12-22T20:41:55.635Z,32.30
2018-12-22T20:44:23.945Z,20.43
2018-12-22T20:46:52.152Z,23.67
2018-12-22T20:49:20.387Z,18.60
2018-12-22T20:51:48.554Z,21.95
2018-12-22T20:54:16.707Z,19.57
2018-12-22T20:56:45.045Z,22.13
2018-12-22T20:59:13.186Z,27.77
2018-12-22T21:01:41.492Z,19.57
2018-12-22T21:04:10.016Z,26.20
2018-12-22T21:06:38.336Z,32.57
2018-12-22T21:09:07.532Z,28.77
2018-12-22T21:11:35.704Z,21.50
2018-12-22T21:14:04.069Z,20.60
2018-12-22T21:16:32.236Z,22.63
2018-12-22T21:19:00.374Z,27.20
2018-12-22T21:21:28.581Z,28.55
2018-12-22T21:23:56.745Z,19.30
2018-12-22T21:26:24.966Z,24.92
2018-12-22T21:28:53.155Z,27.27
2018-12-22T21:31:21.334Z,23.35
2018-12-22T21:33:49.459Z,32.90
2018-12-22T21:36:17.709Z,23.50
2018-12-22T21:38:45.880Z,19.10
2018-12-22T21:41:14.050Z,28.32
2018-12-22T21:43:42.191Z,25.72
2018-12-22T21:46:10.606Z,22.33
2018-12-22T21:48:38.773Z,20.10
2018-12-22T21:51:06.996Z,19.25
2018-12-22T21:53:35.192Z,18.70
2018-12-22T21:56:03.362Z,19.37
2018-12-22T21:58:31.639Z,21.40
2018-12-22T22:00:59.769Z,23.13
2018-12-22T22:03:27.952Z,16.30
2018-12-22T22:05:56.094Z,19.07
2018-12-22T22:08:24.247Z,24.13
2018-12-22T22:10:52.407Z,19.80
2018-12-22T22:13:20.612Z,20.90
2018-12-22T22:15:48.811Z,17.77
2018-12-22T22:18:16.963Z,10.97
2018-12-22T22:20:45.124Z,18.43
2018-12-22T22:23:18.896Z,12.83
2018-12-22T22:25:43.721Z,17.50
2018-12-22T22:28:11.914Z,11.20
2018-12-22T22:30:40.152Z,15.40
2018-12-22T22:33:08.414Z,12.35
2018-12-22T22:35:36.580Z,13.17
2018-12-22T22:38:04.918Z,12.03
2018-12-22T22:40:33.153Z,13.13
2018-12-22T22:43:02.301Z,13.37
2018-12-22T22:45:30.515Z,17.40
2018-12-22T22:47:58.705Z,15.13
2018-12-22T22:50:26.855Z,14.80
2018-12-22T22:52:55.048Z,18.00
2018-12-22T22:55:23.250Z,18.03
2018-12-22T22:57:51.428Z,21.20
2018-12-22T23:00:23.084Z,26.42
2018-12-22T23:02:51.409Z,19.10
2018-12-22T23:05:19.551Z,27.43
2018-12-22T23:07:47.842Z,21.23
2018-12-22T23:10:16.086Z,18.40
2018-12-22T23:12:44.276Z,25.07
2018-12-22T23:15:12.420Z,25.03
2018-12-22T23:17:40.607Z,20.63
2018-12-22T23:20:08.855Z,23.10
2018-12-22T23:22:37.469Z,25.60
2018-12-22T23:25:06.218Z,23.22
2018-12-22T23:27:34.372Z,24.18
2018-12-22T23:30:02.509Z,27.03
2018-12-22T23:32:30.721Z,27.17
2018-12-22T23:35:03.000Z,25.30
2018-12-22T23:37:29.081Z,25.27
2018-12-22T23:39:57.258Z,24.13
2018-12-22T23:42:25.431Z,26.50
2018-12-22T23:44:53.872Z,29.12
2018-12-22T23:47:22.059Z,29.73
2018-12-22T23:49:50.209Z,22.65
2018-12-22T23:52:18.364Z,27.03
2018-12-22T23:54:46.462Z,26.77
2018-12-22T23:57:14.594Z,24.30
2018-12-22T23:59:42.702Z,23.77
